createdAt,value
2017-03-16T00:00:59.252Z,0
2017-03-16T00:01:59.413Z,0
2017-03-16T00:02:59.309Z,0
2017-03-16T00:03:59.472Z,0
2017-03-16T00:04:59.444Z,0
2017-03-16T00:05:59.491Z,0
2017-03-16T00:06:59.434Z,0
2017-03-16T00:07:59.435Z,0
2017-03-16T00:08:59.475Z,0
2017-03-16T00:09:59.499Z,0
2017-03-16T00:10:59.521Z,0
2017-03-16T00:11:59.555Z,0
2017-03-16T00:12:59.580Z,0
2017-03-16T00:14:00.113Z,0
2017-03-16T00:14:59.671Z,0
2017-03-16T00:15:59.690Z,0
2017-03-16T00:16:59.732Z,0
2017-03-16T00:17:59.751Z,0
2017-03-16T00:18:59.746Z,0
2017-03-16T00:19:59.778Z,0
2017-03-16T00:20:59.816Z,0
2017-03-16T00:21:59.822Z,0
2017-03-16T00:22:59.851Z,0
2017-03-16T00:24:00.092Z,0
2017-03-16T00:24:59.909Z,0
2017-03-16T00:25:59.957Z,0
2017-03-16T00:26:59.968Z,0
2017-03-16T00:27:59.985Z,0
2017-03-16T00:29:00.251Z,0
2017-03-16T00:30:00.048Z,0
2017-03-16T00:31:00.101Z,0
2017-03-16T00:32:00.100Z,0
2017-03-16T00:33:00.172Z,0
2017-03-16T00:34:00.185Z,0
2017-03-16T00:35:00.214Z,0
2017-03-16T00:36:00.202Z,0
2017-03-16T00:37:00.241Z,0
2017-03-16T00:38:00.282Z,0
2017-03-16T00:39:00.290Z,0
2017-03-16T00:40:00.323Z,0
2017-03-16T00:41:00.368Z,0
2017-03-16T00:42:00.393Z,0
2017-03-16T00:43:00.423Z,0
2017-03-16T00:44:00.447Z,0
2017-03-16T00:45:00.451Z,0
2017-03-16T00:46:00.514Z,0
2017-03-16T00:47:07.275Z,0
2017-03-16T00:48:00.667Z,0
2017-03-16T00:49:00.788Z,0
2017-03-16T00:50:00.611Z,0
2017-03-16T00:51:00.628Z,0
2017-03-16T00:52:00.858Z,0
2017-03-16T00:53:00.696Z,0
2017-03-16T00:54:00.846Z,0
2017-03-16T00:55:00.721Z,0
2017-03-16T00:56:00.763Z,0
2017-03-16T00:57:00.783Z,0
2017-03-16T00:58:00.807Z,0
2017-03-16T00:59:00.871Z,0
2017-03-16T01:00:00.890Z,0
2017-03-16T01:01:00.961Z,0
2017-03-16T01:02:00.957Z,0
2017-03-16T01:03:00.993Z,0
2017-03-16T01:04:01.180Z,0
2017-03-16T01:05:01.151Z,0
2017-03-16T01:06:01.022Z,0
2017-03-16T01:07:01.059Z,0
2017-03-16T01:08:01.082Z,0
2017-03-16T01:09:01.116Z,0
2017-03-16T01:10:01.144Z,0
2017-03-16T01:11:01.173Z,0
2017-03-16T01:12:01.219Z,0
2017-03-16T01:13:01.240Z,0
2017-03-16T01:14:01.332Z,0
2017-03-16T01:15:01.272Z,0
2017-03-16T01:16:01.320Z,0
2017-03-16T01:17:01.376Z,0
2017-03-16T01:18:01.353Z,0
2017-03-16T01:19:01.374Z,0
2017-03-16T01:20:01.402Z,0
2017-03-16T01:21:01.471Z,0
2017-03-16T01:22:01.520Z,0
2017-03-16T01:23:01.483Z,0
2017-03-16T01:24:01.524Z,0
2017-03-16T01:25:01.555Z,0
2017-03-16T01:26:01.588Z,0
2017-03-16T01:27:01.587Z,0
2017-03-16T01:28:01.672Z,0
2017-03-16T01:29:01.683Z,0
2017-03-16T01:30:01.682Z,0
2017-03-16T01:31:01.781Z,0
2017-03-16T01:32:01.812Z,0
2017-03-16T01:33:01.752Z,0
2017-03-16T01:34:01.801Z,0
2017-03-16T01:35:01.829Z,0
2017-03-16T01:36:01.846Z,0
2017-03-16T01:37:01.869Z,0
2017-03-16T01:38:01.891Z,0
2017-03-16T01:39:01.911Z,0
2017-03-16T01:40:01.955Z,0
2017-03-16T01:41:01.980Z,0
2017-03-16T01:42:02.026Z,0
2017-03-16T01:43:02.025Z,0
2017-03-16T01:44:02.239Z,0
2017-03-16T01:45:02.075Z,0
2017-03-16T01:46:02.191Z,0
2017-03-16T01:47:11.680Z,0
2017-03-16T01:48:02.343Z,0
2017-03-16T01:49:02.363Z,0
2017-03-16T01:50:02.373Z,0
2017-03-16T01:51:02.387Z,0
2017-03-16T01:52:02.494Z,0
2017-03-16T01:53:02.499Z,0
2017-03-16T01:54:02.480Z,0
2017-03-16T01:55:02.497Z,0
2017-03-16T01:56:02.513Z,0
2017-03-16T01:57:02.567Z,0
2017-03-16T01:58:02.593Z,0
2017-03-16T01:59:02.643Z,0
2017-03-16T02:00:02.671Z,0
2017-03-16T02:01:02.682Z,0
2017-03-16T02:02:02.687Z,0
2017-03-16T02:03:02.712Z,0
2017-03-16T02:04:02.807Z,0
2017-03-16T02:05:02.812Z,0
2017-03-16T02:06:02.808Z,0
2017-03-16T02:07:02.817Z,0
2017-03-16T02:08:02.842Z,0
2017-03-16T02:09:02.895Z,0
2017-03-16T02:10:03.210Z,0
2017-03-16T02:11:02.930Z,0
2017-03-16T02:12:02.951Z,0
2017-03-16T02:13:02.997Z,0
2017-03-16T02:14:03.033Z,0
2017-03-16T02:15:03.060Z,0
2017-03-16T02:16:03.062Z,0
2017-03-16T02:17:03.096Z,0
2017-03-16T02:18:03.135Z,0
2017-03-16T02:19:03.242Z,0
2017-03-16T02:20:03.294Z,0
2017-03-16T02:21:03.217Z,0
2017-03-16T02:22:03.221Z,0
2017-03-16T02:23:03.268Z,0
2017-03-16T02:24:03.272Z,0
2017-03-16T02:25:03.306Z,0
2017-03-16T02:26:03.352Z,0
2017-03-16T02:27:03.380Z,0
2017-03-16T02:28:03.409Z,0
2017-03-16T02:29:03.410Z,0
2017-03-16T02:30:03.444Z,0
2017-03-16T02:31:03.496Z,0
2017-03-16T02:32:03.526Z,0
2017-03-16T02:33:03.602Z,0
2017-03-16T02:34:03.554Z,0
2017-03-16T02:35:03.696Z,0
2017-03-16T02:36:03.760Z,0
2017-03-16T02:37:03.759Z,0
2017-03-16T02:38:03.808Z,0
2017-03-16T02:39:03.683Z,0
2017-03-16T02:40:03.756Z,0
2017-03-16T02:41:03.973Z,0
2017-03-16T02:42:03.751Z,0
2017-03-16T02:43:03.850Z,0
2017-03-16T02:44:03.851Z,0
2017-03-16T02:45:03.845Z,0
2017-03-16T02:46:03.994Z,0
2017-03-16T02:47:03.884Z,0
2017-03-16T02:48:03.924Z,0
2017-03-16T02:49:03.961Z,0
2017-03-16T02:50:04.034Z,0
2017-03-16T02:51:46.562Z,0
2017-03-16T02:52:26.316Z,0
2017-03-16T02:53:26.318Z,0
2017-03-16T02:54:26.880Z,0
2017-03-16T02:55:26.869Z,0
2017-03-16T02:56:27.470Z,0
2017-03-16T02:57:27.431Z,0
2017-03-16T02:58:27.440Z,0
2017-03-16T02:59:27.962Z,0
2017-03-16T03:00:28.023Z,0
2017-03-16T03:01:28.469Z,0
2017-03-16T03:02:28.035Z,0
2017-03-16T03:03:28.069Z,0
2017-03-16T03:04:28.100Z,0
2017-03-16T03:05:28.091Z,0
2017-03-16T03:06:28.604Z,0
2017-03-16T03:07:29.189Z,0
2017-03-16T03:08:29.155Z,0
2017-03-16T03:09:29.689Z,0
2017-03-16T03:10:29.695Z,0
2017-03-16T03:11:30.277Z,0
2017-03-16T03:12:30.281Z,0
2017-03-16T03:13:30.278Z,0
2017-03-16T03:14:30.852Z,0
2017-03-16T03:15:30.832Z,0
2017-03-16T03:16:31.391Z,0
2017-03-16T03:17:31.342Z,0
2017-03-16T03:18:31.888Z,0
2017-03-16T03:19:31.954Z,0
2017-03-16T03:20:31.952Z,0
2017-03-16T03:21:31.945Z,0
2017-03-16T03:22:31.938Z,0
2017-03-16T03:23:32.497Z,0
2017-03-16T03:24:32.500Z,0
2017-03-16T03:25:33.055Z,0
2017-03-16T03:26:33.067Z,0
2017-03-16T03:27:33.160Z,0
2017-03-16T03:28:33.153Z,0
2017-03-16T03:29:33.168Z,0
2017-03-16T03:30:33.152Z,0
2017-03-16T03:31:33.688Z,0
2017-03-16T03:32:34.248Z,0
2017-03-16T03:33:34.275Z,0
2017-03-16T03:34:34.275Z,0
2017-03-16T03:35:34.335Z,0
2017-03-16T03:36:34.338Z,0
2017-03-16T03:37:34.346Z,0
2017-03-16T03:38:34.352Z,0
2017-03-16T03:39:34.892Z,0
2017-03-16T03:40:35.448Z,0
2017-03-16T03:41:35.548Z,0
2017-03-16T03:42:35.452Z,0
2017-03-16T03:43:36.033Z,0
2017-03-16T03:44:36.056Z,0
2017-03-16T03:45:36.059Z,0
2017-03-16T03:46:36.065Z,0
2017-03-16T03:47:36.632Z,0
2017-03-16T03:48:36.583Z,0
2017-03-16T03:49:37.099Z,0
2017-03-16T03:50:37.148Z,0
2017-03-16T03:51:37.196Z,0
2017-03-16T03:52:37.189Z,0
2017-03-16T03:53:37.279Z,0
2017-03-16T03:54:37.225Z,0
2017-03-16T03:55:37.739Z,0
2017-03-16T03:56:38.271Z,0
2017-03-16T03:57:38.262Z,0
2017-03-16T03:58:38.794Z,0
2017-03-16T03:59:38.846Z,0
2017-03-16T04:00:38.849Z,0
2017-03-16T04:01:38.927Z,0
2017-03-16T04:02:38.855Z,0
2017-03-16T04:03:39.464Z,0
2017-03-16T04:04:39.460Z,0
2017-03-16T04:05:39.431Z,0
2017-03-16T04:06:39.972Z,0
2017-03-16T04:07:40.481Z,0
2017-03-16T04:08:41.011Z,0
2017-03-16T04:09:41.017Z,0
2017-03-16T04:10:41.915Z,0
2017-03-16T04:11:41.768Z,0
2017-03-16T04:12:41.642Z,0
2017-03-16T04:13:41.629Z,0
2017-03-16T04:14:41.646Z,0
2017-03-16T04:15:41.697Z,0
2017-03-16T04:16:41.706Z,0
2017-03-16T04:17:41.769Z,0
2017-03-16T04:18:41.750Z,0
2017-03-16T04:19:41.780Z,0
2017-03-16T04:20:41.813Z,0
2017-03-16T04:21:41.851Z,0
2017-03-16T04:22:41.833Z,0
2017-03-16T04:23:42.370Z,0
2017-03-16T04:24:42.353Z,0
2017-03-16T04:25:42.883Z,0
2017-03-16T04:26:42.967Z,0
2017-03-16T04:27:42.899Z,0
2017-03-16T04:28:43.426Z,0
2017-03-16T04:29:43.466Z,0
2017-03-16T04:30:43.464Z,0
2017-03-16T04:31:43.489Z,0
2017-03-16T04:32:43.516Z,0
2017-03-16T04:33:44.043Z,0
2017-03-16T04:34:44.073Z,0
2017-03-16T04:35:44.124Z,0
2017-03-16T04:36:44.126Z,0
2017-03-16T04:37:44.141Z,0
2017-03-16T04:38:44.685Z,0
2017-03-16T04:39:45.259Z,0
2017-03-16T04:40:45.259Z,0
2017-03-16T04:41:45.313Z,0
2017-03-16T04:42:45.347Z,0
2017-03-16T04:43:45.362Z,0
2017-03-16T04:44:45.349Z,0
2017-03-16T04:45:45.853Z,0
2017-03-16T04:46:46.417Z,0
2017-03-16T04:47:46.415Z,0
2017-03-16T04:48:46.948Z,0
2017-03-16T04:49:47.030Z,0
2017-03-16T04:50:47.032Z,0
2017-03-16T04:51:47.076Z,0
2017-03-16T04:52:47.068Z,0
2017-03-16T04:53:47.089Z,0
2017-03-16T04:54:47.137Z,0
2017-03-16T04:55:47.104Z,0
2017-03-16T04:56:47.678Z,0
2017-03-16T04:57:47.681Z,0
2017-03-16T04:58:47.707Z,0
2017-03-16T04:59:47.770Z,0
2017-03-16T05:00:47.726Z,0
2017-03-16T05:01:48.328Z,0
2017-03-16T05:02:48.320Z,0
2017-03-16T05:03:48.355Z,0
2017-03-16T05:04:48.322Z,0
2017-03-16T05:05:48.885Z,0
2017-03-16T05:06:48.897Z,0
2017-03-16T05:07:48.891Z,0
2017-03-16T05:08:49.130Z,0
2017-03-16T05:09:48.983Z,0
2017-03-16T05:10:48.978Z,0
2017-03-16T05:11:49.541Z,5
2017-03-16T05:12:49.595Z,5
2017-03-16T05:13:49.615Z,5
2017-03-16T05:14:49.614Z,5
2017-03-16T05:15:49.595Z,5
2017-03-16T05:16:50.186Z,5
2017-03-16T05:17:50.194Z,5
2017-03-16T05:18:50.246Z,10
2017-03-16T05:19:50.209Z,10
2017-03-16T05:20:50.230Z,10
2017-03-16T05:21:50.236Z,10
2017-03-16T05:22:50.790Z,10
2017-03-16T05:23:50.835Z,15
2017-03-16T05:24:50.825Z,15
2017-03-16T05:25:50.834Z,15
2017-03-16T05:26:51.430Z,15
2017-03-16T05:27:51.434Z,20
2017-03-16T05:28:51.427Z,20
2017-03-16T05:29:51.447Z,20
2017-03-16T05:30:51.468Z,25
2017-03-16T05:31:51.998Z,25
2017-03-16T05:32:52.533Z,25
2017-03-16T05:33:52.768Z,30
2017-03-16T05:34:52.671Z,30
2017-03-16T05:35:52.643Z,30
2017-03-16T05:36:52.657Z,35
2017-03-16T05:37:52.660Z,40
2017-03-16T05:38:53.209Z,40
2017-03-16T05:39:53.194Z,45
2017-03-16T05:40:53.792Z,45
2017-03-16T05:41:53.727Z,50
2017-03-16T05:42:54.314Z,50
2017-03-16T05:43:54.342Z,55
2017-03-16T05:44:54.296Z,55
2017-03-16T05:45:54.325Z,60
2017-03-16T05:46:54.916Z,65
2017-03-16T05:47:54.917Z,65
2017-03-16T05:48:54.900Z,70
2017-03-16T05:49:55.478Z,70
2017-03-16T05:50:55.445Z,75
2017-03-16T05:51:56.033Z,70
2017-03-16T05:52:56.008Z,70
2017-03-16T05:53:56.049Z,65
2017-03-16T05:54:56.076Z,65
2017-03-16T05:55:56.145Z,65
2017-03-16T05:56:56.136Z,65
2017-03-16T05:57:56.125Z,70
2017-03-16T05:58:56.699Z,70
2017-03-16T05:59:57.375Z,70
2017-03-16T06:00:57.438Z,75
2017-03-16T06:01:57.425Z,80
2017-03-16T06:02:57.434Z,80
2017-03-16T06:03:57.453Z,85
2017-03-16T06:04:57.498Z,85
2017-03-16T06:05:57.547Z,85
2017-03-16T06:06:57.531Z,95
2017-03-16T06:07:57.584Z,100
2017-03-16T06:08:57.656Z,100
2017-03-16T06:09:57.634Z,105
2017-03-16T06:10:57.636Z,105
2017-03-16T06:11:57.636Z,110
2017-03-16T06:12:58.216Z,115
2017-03-16T06:13:58.226Z,120
2017-03-16T06:14:58.215Z,120
2017-03-16T06:15:58.233Z,120
2017-03-16T06:16:58.837Z,125
2017-03-16T06:17:58.836Z,125
2017-03-16T06:18:58.835Z,130
2017-03-16T06:19:58.876Z,130
2017-03-16T06:20:58.907Z,130
2017-03-16T06:21:58.941Z,135
2017-03-16T06:22:59.121Z,135
2017-03-16T06:23:59.043Z,135
2017-03-16T06:24:58.988Z,140
2017-03-16T06:25:59.578Z,140
2017-03-16T06:26:59.655Z,145
2017-03-16T06:27:59.648Z,145
2017-03-16T06:28:59.646Z,150
2017-03-16T06:29:59.655Z,160
2017-03-16T06:30:59.743Z,165
2017-03-16T06:32:00.232Z,175
2017-03-16T06:33:00.282Z,185
2017-03-16T06:34:00.341Z,195
2017-03-16T06:35:00.317Z,210
2017-03-16T06:36:00.329Z,225
2017-03-16T06:37:00.407Z,220
2017-03-16T06:38:00.425Z,220
2017-03-16T06:39:00.483Z,255
2017-03-16T06:40:00.460Z,280
2017-03-16T06:41:00.461Z,290
2017-03-16T06:42:00.552Z,285
2017-03-16T06:43:00.527Z,280
2017-03-16T06:44:00.558Z,280
2017-03-16T06:45:00.623Z,290
2017-03-16T06:46:00.621Z,300
2017-03-16T06:47:00.625Z,315
2017-03-16T06:48:00.672Z,320
2017-03-16T06:49:00.729Z,305
2017-03-16T06:50:00.753Z,315
2017-03-16T06:51:00.731Z,340
2017-03-16T06:52:00.766Z,300
2017-03-16T06:53:00.798Z,280
2017-03-16T06:54:00.853Z,285
2017-03-16T06:55:00.983Z,285
2017-03-16T06:56:01.042Z,325
2017-03-16T06:57:00.958Z,360
2017-03-16T06:58:00.928Z,445
2017-03-16T06:59:00.999Z,460
2017-03-16T07:00:01.051Z,430
2017-03-16T07:01:01.326Z,360
2017-03-16T07:02:01.055Z,540
2017-03-16T07:03:01.150Z,625
2017-03-16T07:04:01.134Z,765
2017-03-16T07:05:01.147Z,590
2017-03-16T07:06:01.180Z,345
2017-03-16T07:07:01.226Z,425
2017-03-16T07:08:01.243Z,450
2017-03-16T07:09:01.293Z,495
2017-03-16T07:10:01.324Z,770
2017-03-16T07:11:01.363Z,710
2017-03-16T07:12:01.364Z,880
2017-03-16T07:13:01.356Z,460
2017-03-16T07:14:01.456Z,460
2017-03-16T07:15:01.425Z,385
2017-03-16T07:16:01.460Z,425
2017-03-16T07:17:01.543Z,460
2017-03-16T07:18:01.546Z,505
2017-03-16T07:19:01.566Z,600
2017-03-16T07:20:01.576Z,500
2017-03-16T07:21:01.644Z,540
2017-03-16T07:22:01.667Z,480
2017-03-16T07:23:01.707Z,760
2017-03-16T07:24:01.708Z,1040
2017-03-16T07:25:01.706Z,730
2017-03-16T07:26:01.738Z,955
2017-03-16T07:27:01.839Z,775
2017-03-16T07:28:01.844Z,975
2017-03-16T07:29:01.956Z,990
2017-03-16T07:30:02.050Z,1010
2017-03-16T07:31:01.965Z,1035
2017-03-16T07:32:01.927Z,1050
2017-03-16T07:33:01.945Z,1050
2017-03-16T07:34:02.028Z,1060
2017-03-16T07:35:02.152Z,1070
2017-03-16T07:36:02.341Z,1055
2017-03-16T07:37:02.133Z,1080
2017-03-16T07:38:02.146Z,1130
2017-03-16T07:39:02.174Z,1145
2017-03-16T07:40:02.552Z,1140
2017-03-16T07:41:02.246Z,1105
2017-03-16T07:42:02.261Z,1165
2017-03-16T07:43:02.374Z,1220
2017-03-16T07:44:02.325Z,1260
2017-03-16T07:45:02.351Z,1325
2017-03-16T07:46:02.439Z,1235
2017-03-16T07:47:02.404Z,1290
2017-03-16T07:48:02.480Z,1315
2017-03-16T07:49:02.502Z,1420
2017-03-16T07:50:02.535Z,1080
2017-03-16T07:51:02.576Z,1220
2017-03-16T07:52:02.648Z,1150
2017-03-16T07:53:02.649Z,1405
2017-03-16T07:54:02.776Z,875
2017-03-16T07:55:02.734Z,690
2017-03-16T07:56:02.737Z,575
2017-03-16T07:57:02.775Z,520
2017-03-16T07:58:02.868Z,530
2017-03-16T07:59:03.070Z,545
2017-03-16T08:00:02.878Z,560
2017-03-16T08:01:03.240Z,610
2017-03-16T08:02:02.951Z,800
2017-03-16T08:03:03.194Z,680
2017-03-16T08:04:03.058Z,670
2017-03-16T08:05:03.043Z,655
2017-03-16T08:06:03.172Z,655
2017-03-16T08:07:03.128Z,630
2017-03-16T08:08:03.162Z,665
2017-03-16T08:09:03.179Z,640
2017-03-16T08:10:03.373Z,605
2017-03-16T08:11:03.272Z,515
2017-03-16T08:12:03.364Z,525
2017-03-16T08:13:03.388Z,530
2017-03-16T08:14:03.371Z,670
2017-03-16T08:15:03.455Z,770
2017-03-16T08:16:03.452Z,725
2017-03-16T08:17:03.466Z,950
2017-03-16T08:18:03.559Z,730
2017-03-16T08:19:03.606Z,805
2017-03-16T08:20:03.987Z,850
2017-03-16T08:21:03.591Z,885
2017-03-16T08:22:03.666Z,885
2017-03-16T08:23:03.661Z,810
2017-03-16T08:24:03.694Z,945
2017-03-16T08:25:03.887Z,945
2017-03-16T08:26:03.783Z,935
2017-03-16T08:27:03.892Z,845
2017-03-16T08:28:03.883Z,875
2017-03-16T08:29:05.467Z,815
2017-03-16T08:30:05.412Z,825
2017-03-16T08:31:05.310Z,965
2017-03-16T08:32:05.121Z,830
2017-03-16T08:33:04.661Z,850
2017-03-16T08:34:04.064Z,815
2017-03-16T08:35:04.331Z,820
2017-03-16T08:36:04.180Z,935
2017-03-16T08:37:04.208Z,865
2017-03-16T08:38:04.193Z,870
2017-03-16T08:39:04.198Z,880
2017-03-16T08:40:04.294Z,1075
2017-03-16T08:41:04.351Z,1380
2017-03-16T08:42:04.311Z,1710
2017-03-16T08:43:04.348Z,1365
2017-03-16T08:44:04.423Z,995
2017-03-16T08:45:04.459Z,1130
2017-03-16T08:46:04.483Z,765
2017-03-16T08:47:04.526Z,895
2017-03-16T08:48:04.544Z,845
2017-03-16T08:49:04.567Z,885
2017-03-16T08:50:04.674Z,825
2017-03-16T08:51:04.631Z,755
2017-03-16T08:52:04.649Z,985
2017-03-16T08:53:04.775Z,730
2017-03-16T08:54:04.729Z,860
2017-03-16T08:55:04.790Z,625
2017-03-16T08:56:04.821Z,645
2017-03-16T08:57:04.876Z,660
2017-03-16T08:58:04.876Z,655
2017-03-16T08:59:04.903Z,565
2017-03-16T09:00:04.990Z,500
2017-03-16T09:01:04.981Z,560
2017-03-16T09:02:05.037Z,690
2017-03-16T09:03:05.177Z,735
2017-03-16T09:04:05.143Z,730
2017-03-16T09:05:05.198Z,780
2017-03-16T09:06:05.243Z,845
2017-03-16T09:07:05.291Z,800
2017-03-16T09:08:05.318Z,785
2017-03-16T09:09:05.359Z,710
2017-03-16T09:10:05.325Z,770
2017-03-16T09:11:05.365Z,720
2017-03-16T09:12:05.438Z,710
2017-03-16T09:13:05.431Z,755
2017-03-16T09:14:05.483Z,900
2017-03-16T09:15:05.536Z,855
2017-03-16T09:16:05.571Z,950
2017-03-16T09:17:05.662Z,930
2017-03-16T09:18:05.610Z,810
2017-03-16T09:19:05.705Z,850
2017-03-16T09:20:06.087Z,1085
2017-03-16T09:21:05.978Z,890
2017-03-16T09:22:05.744Z,915
2017-03-16T09:23:05.802Z,745
2017-03-16T09:24:05.812Z,695
2017-03-16T09:25:06.001Z,815
2017-03-16T09:26:05.952Z,955
2017-03-16T09:27:05.960Z,1260
2017-03-16T09:28:06.141Z,1245
2017-03-16T09:29:06.041Z,1790
2017-03-16T09:30:06.049Z,1475
2017-03-16T09:31:06.095Z,1445
2017-03-16T09:32:06.193Z,1640
2017-03-16T09:33:06.184Z,1940
2017-03-16T09:34:06.277Z,1700
2017-03-16T09:35:06.413Z,2490
2017-03-16T09:36:06.282Z,2060
2017-03-16T09:37:06.293Z,1910
2017-03-16T09:38:06.337Z,1440
2017-03-16T09:39:06.365Z,1760
2017-03-16T09:40:06.420Z,1505
2017-03-16T09:41:06.427Z,1710
2017-03-16T09:42:06.470Z,1530
2017-03-16T09:43:06.474Z,1890
2017-03-16T09:44:06.571Z,1855
2017-03-16T09:45:06.585Z,1255
2017-03-16T09:46:06.629Z,1410
2017-03-16T09:47:06.709Z,1125
2017-03-16T09:48:06.718Z,1225
2017-03-16T09:49:06.974Z,1040
2017-03-16T09:50:06.824Z,1040
2017-03-16T09:51:06.927Z,1165
2017-03-16T09:52:06.896Z,955
2017-03-16T09:53:06.892Z,870
2017-03-16T09:54:06.959Z,830
2017-03-16T09:55:07.013Z,780
2017-03-16T09:56:07.082Z,750
2017-03-16T09:57:07.066Z,705
2017-03-16T09:58:07.065Z,720
2017-03-16T09:59:07.120Z,710
2017-03-16T10:00:07.187Z,730
2017-03-16T10:01:07.283Z,755
2017-03-16T10:02:07.257Z,785
2017-03-16T10:03:14.066Z,755
2017-03-16T10:04:07.300Z,785
2017-03-16T10:05:07.343Z,790
2017-03-16T10:06:07.383Z,755
2017-03-16T10:07:07.438Z,745
2017-03-16T10:08:07.507Z,770
2017-03-16T10:09:07.902Z,735
2017-03-16T10:10:07.568Z,740
2017-03-16T10:11:07.582Z,775
2017-03-16T10:12:07.599Z,785
2017-03-16T10:13:07.656Z,815
2017-03-16T10:14:07.692Z,790
2017-03-16T10:15:07.727Z,745
2017-03-16T10:16:07.819Z,695
2017-03-16T10:17:07.876Z,685
2017-03-16T10:18:07.835Z,660
2017-03-16T10:19:07.893Z,650
2017-03-16T10:20:07.911Z,645
2017-03-16T10:21:07.959Z,650
2017-03-16T10:22:08.020Z,665
2017-03-16T10:23:08.023Z,650
2017-03-16T10:24:08.293Z,620
2017-03-16T10:25:08.123Z,600
2017-03-16T10:26:08.192Z,610
2017-03-16T10:27:08.222Z,630
2017-03-16T10:28:08.190Z,645
2017-03-16T10:29:08.463Z,625
2017-03-16T10:30:08.299Z,585
2017-03-16T10:31:08.322Z,595
2017-03-16T10:32:08.351Z,595
2017-03-16T10:33:08.410Z,570
2017-03-16T10:34:08.389Z,550
2017-03-16T10:35:08.679Z,520
2017-03-16T10:36:08.464Z,505
2017-03-16T10:37:08.522Z,490
2017-03-16T10:38:08.584Z,500
2017-03-16T10:39:08.598Z,495
2017-03-16T10:40:08.684Z,500
2017-03-16T10:41:08.658Z,505
2017-03-16T10:42:08.746Z,510
2017-03-16T10:43:08.803Z,520
2017-03-16T10:44:08.960Z,535
2017-03-16T10:45:08.842Z,550
2017-03-16T10:46:08.880Z,545
2017-03-16T10:47:09.294Z,550
2017-03-16T10:48:08.878Z,555
2017-03-16T10:49:08.925Z,565
2017-03-16T10:50:09.273Z,565
2017-03-16T10:51:08.993Z,570
2017-03-16T10:52:09.062Z,580
2017-03-16T10:53:09.255Z,570
2017-03-16T10:54:09.310Z,560
2017-03-16T10:55:09.560Z,540
2017-03-16T10:56:09.222Z,510
2017-03-16T10:57:09.214Z,490
2017-03-16T10:58:09.233Z,490
2017-03-16T10:59:09.257Z,495
2017-03-16T11:00:09.586Z,510
2017-03-16T11:01:09.577Z,510
2017-03-16T11:02:09.660Z,495
2017-03-16T11:03:17.936Z,490
2017-03-16T11:04:09.644Z,495
2017-03-16T11:05:09.485Z,495
2017-03-16T11:06:09.610Z,500
2017-03-16T11:07:09.582Z,515
2017-03-16T11:08:09.601Z,515
2017-03-16T11:09:09.829Z,515
2017-03-16T11:10:09.680Z,510
2017-03-16T11:11:09.664Z,510
2017-03-16T11:12:09.721Z,510
2017-03-16T11:13:09.750Z,525
2017-03-16T11:14:09.819Z,520
2017-03-16T11:15:09.840Z,515
2017-03-16T11:16:09.824Z,515
2017-03-16T11:17:09.882Z,515
2017-03-16T11:18:09.961Z,515
2017-03-16T11:19:09.970Z,520
2017-03-16T11:20:09.999Z,530
2017-03-16T11:21:10.082Z,540
2017-03-16T11:22:10.122Z,550
2017-03-16T11:23:10.080Z,540
2017-03-16T11:24:10.150Z,530
2017-03-16T11:25:10.188Z,515
2017-03-16T11:26:10.200Z,500
2017-03-16T11:27:10.618Z,510
2017-03-16T11:28:10.522Z,520
2017-03-16T11:29:10.321Z,530
2017-03-16T11:30:10.330Z,555
2017-03-16T11:31:10.381Z,590
2017-03-16T11:32:10.440Z,595
2017-03-16T11:33:10.523Z,595
2017-03-16T11:34:10.482Z,600
2017-03-16T11:35:10.613Z,585
2017-03-16T11:36:10.613Z,550
2017-03-16T11:37:10.782Z,540
2017-03-16T11:38:10.802Z,540
2017-03-16T11:39:10.702Z,525
2017-03-16T11:40:10.720Z,515
2017-03-16T11:41:10.712Z,510
2017-03-16T11:42:10.800Z,515
2017-03-16T11:43:10.771Z,535
2017-03-16T11:44:10.912Z,545
2017-03-16T11:45:10.840Z,550
2017-03-16T11:46:11.009Z,550
2017-03-16T11:47:10.918Z,555
2017-03-16T11:48:11.006Z,565
2017-03-16T11:49:11.223Z,560
2017-03-16T11:50:11.025Z,565
2017-03-16T11:51:11.137Z,590
2017-03-16T11:52:11.121Z,605
2017-03-16T11:53:11.158Z,605
2017-03-16T11:54:11.585Z,630
2017-03-16T11:55:11.207Z,605
2017-03-16T11:56:11.424Z,600
2017-03-16T11:57:11.268Z,605
2017-03-16T11:58:11.321Z,600
2017-03-16T11:59:11.593Z,610
2017-03-16T12:00:11.419Z,590
2017-03-16T12:01:11.405Z,580
2017-03-16T12:02:11.472Z,575
2017-03-16T12:03:11.539Z,545
2017-03-16T12:04:11.515Z,540
2017-03-16T12:05:11.692Z,545
2017-03-16T12:06:11.614Z,535
2017-03-16T12:07:11.599Z,515
2017-03-16T12:08:11.695Z,505
2017-03-16T12:09:11.683Z,490
2017-03-16T12:10:11.940Z,465
2017-03-16T12:11:11.729Z,460
2017-03-16T12:12:11.814Z,460
2017-03-16T12:13:12.020Z,450
2017-03-16T12:14:11.928Z,450
2017-03-16T12:15:12.011Z,440
2017-03-16T12:16:11.919Z,430
2017-03-16T12:17:11.987Z,405
2017-03-16T12:18:11.997Z,385
2017-03-16T12:19:12.250Z,365
2017-03-16T12:20:12.197Z,320
2017-03-16T12:21:12.077Z,305
2017-03-16T12:22:12.139Z,295
2017-03-16T12:23:12.191Z,285
2017-03-16T12:24:12.215Z,280
2017-03-16T12:25:12.395Z,310
2017-03-16T12:26:12.309Z,335
2017-03-16T12:27:12.291Z,340
2017-03-16T12:28:12.413Z,345
2017-03-16T12:29:12.377Z,340
2017-03-16T12:30:12.948Z,350
2017-03-16T12:31:12.474Z,365
2017-03-16T12:32:12.519Z,365
2017-03-16T12:33:12.542Z,360
2017-03-16T12:34:12.767Z,355
2017-03-16T12:35:12.615Z,350
2017-03-16T12:36:12.616Z,355
2017-03-16T12:37:12.710Z,365
2017-03-16T12:38:12.750Z,360
2017-03-16T12:39:12.701Z,355
2017-03-16T12:40:12.776Z,355
2017-03-16T12:41:13.020Z,355
2017-03-16T12:42:12.817Z,365
2017-03-16T12:43:12.918Z,375
2017-03-16T12:44:12.949Z,385
2017-03-16T12:45:12.913Z,395
2017-03-16T12:46:12.950Z,415
2017-03-16T12:47:12.979Z,415
2017-03-16T12:48:13.046Z,420
2017-03-16T12:49:13.075Z,435
2017-03-16T12:50:13.126Z,440
2017-03-16T12:51:13.166Z,430
2017-03-16T12:52:13.373Z,415
2017-03-16T12:53:13.390Z,420
2017-03-16T12:54:13.252Z,420
2017-03-16T12:55:13.275Z,410
2017-03-16T12:56:13.330Z,395
2017-03-16T12:57:13.329Z,380
2017-03-16T12:58:13.427Z,380
2017-03-16T12:59:13.390Z,375
2017-03-16T13:00:13.511Z,370
2017-03-16T13:01:13.679Z,385
2017-03-16T13:02:13.515Z,395
2017-03-16T13:03:13.538Z,400
2017-03-16T13:04:13.839Z,395
2017-03-16T13:05:13.611Z,390
2017-03-16T13:06:13.707Z,395
2017-03-16T13:07:13.744Z,375
2017-03-16T13:08:13.903Z,370
2017-03-16T13:09:13.790Z,360
2017-03-16T13:10:13.778Z,360
2017-03-16T13:11:13.832Z,345
2017-03-16T13:12:13.854Z,350
2017-03-16T13:13:13.925Z,340
2017-03-16T13:14:13.953Z,335
2017-03-16T13:15:14.110Z,335
2017-03-16T13:16:14.045Z,330
2017-03-16T13:17:14.067Z,325
2017-03-16T13:18:14.155Z,330
2017-03-16T13:19:14.115Z,335
2017-03-16T13:20:14.236Z,335
2017-03-16T13:21:14.168Z,335
2017-03-16T13:22:14.461Z,345
2017-03-16T13:23:14.222Z,345
2017-03-16T13:24:14.468Z,335
2017-03-16T13:25:14.409Z,330
2017-03-16T13:26:14.432Z,340
2017-03-16T13:27:14.354Z,360
2017-03-16T13:28:14.432Z,370
2017-03-16T13:29:14.466Z,370
2017-03-16T13:30:14.584Z,370
2017-03-16T13:31:14.543Z,365
2017-03-16T13:32:14.519Z,375
2017-03-16T13:33:14.549Z,375
2017-03-16T13:34:14.617Z,370
2017-03-16T13:35:14.693Z,365
2017-03-16T13:36:14.721Z,365
2017-03-16T13:37:14.726Z,365
2017-03-16T13:38:14.728Z,365
2017-03-16T13:39:14.837Z,355
2017-03-16T13:40:15.068Z,355
2017-03-16T13:41:14.829Z,340
2017-03-16T13:42:14.871Z,325
2017-03-16T13:43:14.950Z,320
2017-03-16T13:44:14.910Z,305
2017-03-16T13:45:14.991Z,300
2017-03-16T13:46:15.034Z,300
2017-03-16T13:47:15.282Z,290
2017-03-16T13:48:15.087Z,280
2017-03-16T13:49:15.146Z,280
2017-03-16T13:50:15.160Z,270
2017-03-16T13:51:15.230Z,265
2017-03-16T13:52:15.387Z,240
2017-03-16T13:53:15.494Z,240
2017-03-16T13:54:15.343Z,235
2017-03-16T13:55:15.387Z,230
2017-03-16T13:56:15.389Z,235
2017-03-16T13:57:15.391Z,240
2017-03-16T13:58:15.403Z,255
2017-03-16T13:59:15.530Z,260
2017-03-16T14:00:15.677Z,265
2017-03-16T14:01:15.812Z,255
2017-03-16T14:02:15.596Z,245
2017-03-16T14:03:15.567Z,240
2017-03-16T14:04:15.788Z,250
2017-03-16T14:05:15.691Z,265
2017-03-16T14:06:16.436Z,255
2017-03-16T14:07:15.744Z,270
2017-03-16T14:08:15.730Z,280
2017-03-16T14:09:15.800Z,280